sensor_id;sensor_type;location;lat;lon;timestamp;P1;durP1;ratioP1;P2;durP2;ratioP2
66342;SDS011;53144;51.524;5.080;2023-03-14T00:04:10;3.97;;;1.63;;
66342;SDS011;53144;51.524;5.080;2023-03-14T00:06:36;7.82;;;1.88;;
66342;SDS011;53144;51.524;5.080;2023-03-14T00:09:01;6.97;;;1.52;;
66342;SDS011;53144;51.524;5.080;2023-03-14T00:13:52;4.68;;;1.65;;
66342;SDS011;53144;51.524;5.080;2023-03-14T00:18:44;4.60;;;1.40;;
66342;SDS011;53144;51.524;5.080;2023-03-14T00:21:10;6.63;;;1.50;;
66342;SDS011;53144;51.524;5.080;2023-03-14T00:23:36;10.07;;;1.92;;
66342;SDS011;53144;51.524;5.080;2023-03-14T00:26:06;8.20;;;1.60;;
66342;SDS011;53144;51.524;5.080;2023-03-14T00:28:36;11.05;;;1.65;;
66342;SDS011;53144;51.524;5.080;2023-03-14T00:33:29;5.85;;;1.80;;
66342;SDS011;53144;51.524;5.080;2023-03-14T00:38:26;8.65;;;1.60;;
66342;SDS011;53144;51.524;5.080;2023-03-14T00:43:21;8.30;;;1.50;;
66342;SDS011;53144;51.524;5.080;2023-03-14T00:45:47;5.93;;;1.55;;
66342;SDS011;53144;51.524;5.080;2023-03-14T00:48:13;6.78;;;1.60;;
66342;SDS011;53144;51.524;5.080;2023-03-14T00:53:04;6.22;;;1.63;;
66342;SDS011;53144;51.524;5.080;2023-03-14T00:55:29;6.80;;;1.58;;
66342;SDS011;53144;51.524;5.080;2023-03-14T01:00:20;6.30;;;1.73;;
66342;SDS011;53144;51.524;5.080;2023-03-14T01:05:10;6.00;;;1.65;;
66342;SDS011;53144;51.524;5.080;2023-03-14T01:10:02;8.05;;;1.85;;
66342;SDS011;53144;51.524;5.080;2023-03-14T01:12:29;5.03;;;1.40;;
66342;SDS011;53144;51.524;5.080;2023-03-14T01:14:54;8.45;;;1.70;;
66342;SDS011;53144;51.524;5.080;2023-03-14T01:19:45;5.95;;;1.48;;
66342;SDS011;53144;51.524;5.080;2023-03-14T01:24:36;7.47;;;1.40;;
66342;SDS011;53144;51.524;5.080;2023-03-14T01:27:02;5.95;;;1.50;;
66342;SDS011;53144;51.524;5.080;2023-03-14T01:31:53;7.85;;;1.40;;
66342;SDS011;53144;51.524;5.080;2023-03-14T01:36:43;8.30;;;1.63;;
66342;SDS011;53144;51.524;5.080;2023-03-14T01:41:34;5.22;;;1.02;;
66342;SDS011;53144;51.524;5.080;2023-03-14T01:46:41;5.03;;;1.42;;
66342;SDS011;53144;51.524;5.080;2023-03-14T01:54:24;6.22;;;1.63;;
66342;SDS011;53144;51.524;5.080;2023-03-14T01:59:38;9.32;;;1.60;;
66342;SDS011;53144;51.524;5.080;2023-03-14T02:02:06;8.57;;;1.98;;
66342;SDS011;53144;51.524;5.080;2023-03-14T02:04:35;6.50;;;1.88;;
66342;SDS011;53144;51.524;5.080;2023-03-14T02:09:39;7.72;;;1.80;;
66342;SDS011;53144;51.524;5.080;2023-03-14T02:12:07;10.40;;;1.92;;
66342;SDS011;53144;51.524;5.080;2023-03-14T02:14:34;10.32;;;1.92;;
66342;SDS011;53144;51.524;5.080;2023-03-14T02:17:01;8.60;;;2.10;;
66342;SDS011;53144;51.524;5.080;2023-03-14T02:22:33;5.93;;;1.77;;
66342;SDS011;53144;51.524;5.080;2023-03-14T02:27:40;7.95;;;2.00;;
66342;SDS011;53144;51.524;5.080;2023-03-14T02:32:41;7.80;;;1.73;;
66342;SDS011;53144;51.524;5.080;2023-03-14T02:35:11;11.32;;;2.40;;
66342;SDS011;53144;51.524;5.080;2023-03-14T02:37:41;8.85;;;2.10;;
66342;SDS011;53144;51.524;5.080;2023-03-14T02:40:09;7.13;;;1.90;;
66342;SDS011;53144;51.524;5.080;2023-03-14T02:47:35;10.88;;;2.15;;
66342;SDS011;53144;51.524;5.080;2023-03-14T02:50:11;8.15;;;1.67;;
66342;SDS011;53144;51.524;5.080;2023-03-14T02:52:40;8.20;;;1.95;;
66342;SDS011;53144;51.524;5.080;2023-03-14T02:57:31;12.85;;;2.15;;
66342;SDS011;53144;51.524;5.080;2023-03-14T03:02:26;9.10;;;2.05;;
66342;SDS011;53144;51.524;5.080;2023-03-14T03:04:55;7.75;;;1.70;;
66342;SDS011;53144;51.524;5.080;2023-03-14T03:07:21;6.50;;;1.60;;
66342;SDS011;53144;51.524;5.080;2023-03-14T03:09:46;7.60;;;2.08;;
66342;SDS011;53144;51.524;5.080;2023-03-14T03:14:37;8.70;;;2.00;;
66342;SDS011;53144;51.524;5.080;2023-03-14T03:19:28;5.22;;;1.30;;
66342;SDS011;53144;51.524;5.080;2023-03-14T03:21:54;9.95;;;1.75;;
66342;SDS011;53144;51.524;5.080;2023-03-14T03:26:45;6.50;;;1.63;;
66342;SDS011;53144;51.524;5.080;2023-03-14T03:31:36;9.55;;;1.83;;
66342;SDS011;53144;51.524;5.080;2023-03-14T03:34:02;7.38;;;2.03;;
66342;SDS011;53144;51.524;5.080;2023-03-14T03:36:28;5.38;;;1.50;;
66342;SDS011;53144;51.524;5.080;2023-03-14T03:41:21;5.28;;;1.45;;
66342;SDS011;53144;51.524;5.080;2023-03-14T03:46:12;5.10;;;1.30;;
66342;SDS011;53144;51.524;5.080;2023-03-14T03:51:03;4.18;;;1.25;;
66342;SDS011;53144;51.524;5.080;2023-03-14T03:55:54;4.88;;;1.05;;
66342;SDS011;53144;51.524;5.080;2023-03-14T04:00:45;7.68;;;1.40;;
66342;SDS011;53144;51.524;5.080;2023-03-14T04:05:35;8.95;;;1.52;;
66342;SDS011;53144;51.524;5.080;2023-03-14T04:08:01;8.57;;;1.40;;
66342;SDS011;53144;51.524;5.080;2023-03-14T04:12:55;5.80;;;1.75;;
66342;SDS011;53144;51.524;5.080;2023-03-14T04:15:20;7.18;;;1.38;;
66342;SDS011;53144;51.524;5.080;2023-03-14T04:20:11;4.57;;;1.23;;
66342;SDS011;53144;51.524;5.080;2023-03-14T04:25:03;5.38;;;1.35;;
66342;SDS011;53144;51.524;5.080;2023-03-14T04:29:54;7.00;;;1.48;;
66342;SDS011;53144;51.524;5.080;2023-03-14T04:32:20;7.72;;;2.05;;
66342;SDS011;53144;51.524;5.080;2023-03-14T04:34:45;5.97;;;1.67;;
66342;SDS011;53144;51.524;5.080;2023-03-14T04:39:36;5.38;;;1.20;;
66342;SDS011;53144;51.524;5.080;2023-03-14T04:44:27;5.88;;;1.60;;
66342;SDS011;53144;51.524;5.080;2023-03-14T04:49:17;5.93;;;1.60;;
66342;SDS011;53144;51.524;5.080;2023-03-14T04:54:08;5.43;;;2.30;;
66342;SDS011;53144;51.524;5.080;2023-03-14T04:56:34;4.72;;;2.20;;
66342;SDS011;53144;51.524;5.080;2023-03-14T04:58:59;5.35;;;2.75;;
66342;SDS011;53144;51.524;5.080;2023-03-14T05:01:24;5.18;;;2.63;;
66342;SDS011;53144;51.524;5.080;2023-03-14T05:06:15;7.10;;;3.30;;
66342;SDS011;53144;51.524;5.080;2023-03-14T05:08:41;7.03;;;2.88;;
66342;SDS011;53144;51.524;5.080;2023-03-14T05:13:31;8.20;;;3.20;;
66342;SDS011;53144;51.524;5.080;2023-03-14T05:18:32;5.05;;;2.67;;
66342;SDS011;53144;51.524;5.080;2023-03-14T05:20:58;4.78;;;2.92;;
66342;SDS011;53144;51.524;5.080;2023-03-14T05:25:49;4.45;;;2.53;;
66342;SDS011;53144;51.524;5.080;2023-03-14T05:30:39;6.32;;;2.92;;
66342;SDS011;53144;51.524;5.080;2023-03-14T05:35:30;6.32;;;3.08;;
66342;SDS011;53144;51.524;5.080;2023-03-14T05:40:21;5.68;;;2.90;;
66342;SDS011;53144;51.524;5.080;2023-03-14T05:45:12;7.35;;;3.40;;
66342;SDS011;53144;51.524;5.080;2023-03-14T05:47:37;6.65;;;3.70;;
66342;SDS011;53144;51.524;5.080;2023-03-14T05:52:28;7.38;;;3.42;;
66342;SDS011;53144;51.524;5.080;2023-03-14T05:54:56;8.43;;;4.10;;
66342;SDS011;53144;51.524;5.080;2023-03-14T05:57:21;9.65;;;4.07;;
66342;SDS011;53144;51.524;5.080;2023-03-14T06:02:12;6.43;;;3.70;;
66342;SDS011;53144;51.524;5.080;2023-03-14T06:07:02;5.45;;;3.90;;
66342;SDS011;53144;51.524;5.080;2023-03-14T06:11:53;10.40;;;4.15;;
66342;SDS011;53144;51.524;5.080;2023-03-14T06:16:44;8.25;;;4.60;;
66342;SDS011;53144;51.524;5.080;2023-03-14T06:19:18;10.32;;;4.95;;
66342;SDS011;53144;51.524;5.080;2023-03-14T06:21:44;9.88;;;5.38;;
66342;SDS011;53144;51.524;5.080;2023-03-14T06:24:10;8.30;;;5.80;;
66342;SDS011;53144;51.524;5.080;2023-03-14T06:29:00;8.00;;;5.22;;
66342;SDS011;53144;51.524;5.080;2023-03-14T06:31:28;10.18;;;5.60;;
66342;SDS011;53144;51.524;5.080;2023-03-14T06:33:55;9.85;;;5.53;;
66342;SDS011;53144;51.524;5.080;2023-03-14T06:36:20;8.60;;;4.90;;
66342;SDS011;53144;51.524;5.080;2023-03-14T06:41:11;10.25;;;5.30;;
66342;SDS011;53144;51.524;5.080;2023-03-14T06:46:01;10.05;;;5.22;;
66342;SDS011;53144;51.524;5.080;2023-03-14T06:50:52;8.80;;;5.40;;
66342;SDS011;53144;51.524;5.080;2023-03-14T06:55:43;9.35;;;5.90;;
66342;SDS011;53144;51.524;5.080;2023-03-14T07:00:34;8.77;;;5.63;;
66342;SDS011;53144;51.524;5.080;2023-03-14T07:05:25;4.47;;;3.72;;
66342;SDS011;53144;51.524;5.080;2023-03-14T07:10:16;2.30;;;2.10;;
66342;SDS011;53144;51.524;5.080;2023-03-14T07:12:41;3.92;;;2.70;;
66342;SDS011;53144;51.524;5.080;2023-03-14T07:15:07;3.40;;;1.80;;
66342;SDS011;53144;51.524;5.080;2023-03-14T07:19:58;2.92;;;1.95;;
66342;SDS011;53144;51.524;5.080;2023-03-14T07:22:24;4.05;;;2.38;;
66342;SDS011;53144;51.524;5.080;2023-03-14T07:24:50;5.57;;;2.20;;
66342;SDS011;53144;51.524;5.080;2023-03-14T07:27:15;5.13;;;2.00;;
66342;SDS011;53144;51.524;5.080;2023-03-14T07:29:40;5.82;;;2.45;;
66342;SDS011;53144;51.524;5.080;2023-03-14T07:32:06;4.80;;;2.50;;
66342;SDS011;53144;51.524;5.080;2023-03-14T07:34:32;5.93;;;3.53;;
66342;SDS011;53144;51.524;5.080;2023-03-14T07:36:58;7.53;;;4.07;;
66342;SDS011;53144;51.524;5.080;2023-03-14T07:39:24;6.15;;;3.90;;
66342;SDS011;53144;51.524;5.080;2023-03-14T07:41:49;5.53;;;3.63;;
66342;SDS011;53144;51.524;5.080;2023-03-14T07:44:14;5.43;;;3.15;;
66342;SDS011;53144;51.524;5.080;2023-03-14T07:46:40;4.72;;;3.00;;
66342;SDS011;53144;51.524;5.080;2023-03-14T07:49:05;7.78;;;3.58;;
66342;SDS011;53144;51.524;5.080;2023-03-14T07:51:30;6.00;;;2.90;;
66342;SDS011;53144;51.524;5.080;2023-03-14T07:53:56;5.15;;;3.28;;
66342;SDS011;53144;51.524;5.080;2023-03-14T07:56:21;4.45;;;3.15;;
66342;SDS011;53144;51.524;5.080;2023-03-14T07:58:47;7.35;;;3.80;;
66342;SDS011;53144;51.524;5.080;2023-03-14T08:01:12;4.25;;;2.40;;
66342;SDS011;53144;51.524;5.080;2023-03-14T08:03:37;2.92;;;1.95;;
66342;SDS011;53144;51.524;5.080;2023-03-14T08:06:03;5.47;;;2.50;;
66342;SDS011;53144;51.524;5.080;2023-03-14T08:08:28;6.63;;;2.55;;
66342;SDS011;53144;51.524;5.080;2023-03-14T08:10:54;3.78;;;1.73;;
66342;SDS011;53144;51.524;5.080;2023-03-14T08:13:19;4.80;;;2.20;;
66342;SDS011;53144;51.524;5.080;2023-03-14T08:15:47;4.57;;;2.30;;
66342;SDS011;53144;51.524;5.080;2023-03-14T08:18:14;5.05;;;2.00;;
66342;SDS011;53144;51.524;5.080;2023-03-14T08:20:39;9.73;;;2.30;;
66342;SDS011;53144;51.524;5.080;2023-03-14T08:23:04;6.45;;;2.22;;
66342;SDS011;53144;51.524;5.080;2023-03-14T08:25:30;5.82;;;1.95;;
66342;SDS011;53144;51.524;5.080;2023-03-14T08:27:55;5.28;;;1.83;;
66342;SDS011;53144;51.524;5.080;2023-03-14T08:30:21;9.35;;;1.90;;
66342;SDS011;53144;51.524;5.080;2023-03-14T08:32:47;6.78;;;1.65;;
66342;SDS011;53144;51.524;5.080;2023-03-14T08:35:12;5.80;;;2.03;;
66342;SDS011;53144;51.524;5.080;2023-03-14T08:37:38;7.88;;;2.58;;
66342;SDS011;53144;51.524;5.080;2023-03-14T08:40:05;7.72;;;1.75;;
66342;SDS011;53144;51.524;5.080;2023-03-14T08:42:32;4.13;;;1.50;;
66342;SDS011;53144;51.524;5.080;2023-03-14T08:44:58;5.85;;;1.60;;
66342;SDS011;53144;51.524;5.080;2023-03-14T08:47:23;7.97;;;1.48;;
66342;SDS011;53144;51.524;5.080;2023-03-14T08:49:49;4.22;;;1.80;;
66342;SDS011;53144;51.524;5.080;2023-03-14T08:52:15;4.22;;;1.70;;
66342;SDS011;53144;51.524;5.080;2023-03-14T08:54:41;7.32;;;1.88;;
66342;SDS011;53144;51.524;5.080;2023-03-14T08:57:09;3.72;;;1.60;;
66342;SDS011;53144;51.524;5.080;2023-03-14T08:59:34;6.32;;;2.20;;
66342;SDS011;53144;51.524;5.080;2023-03-14T09:01:59;4.18;;;2.03;;
66342;SDS011;53144;51.524;5.080;2023-03-14T09:04:28;5.60;;;2.22;;
66342;SDS011;53144;51.524;5.080;2023-03-14T09:09:19;5.00;;;2.90;;
66342;SDS011;53144;51.524;5.080;2023-03-14T09:11:45;3.75;;;2.30;;
66342;SDS011;53144;51.524;5.080;2023-03-14T09:14:10;4.13;;;2.13;;
66342;SDS011;53144;51.524;5.080;2023-03-14T09:16:35;4.93;;;1.90;;
66342;SDS011;53144;51.524;5.080;2023-03-14T09:19:01;4.03;;;2.00;;
66342;SDS011;53144;51.524;5.080;2023-03-14T09:21:27;2.65;;;1.23;;
66342;SDS011;53144;51.524;5.080;2023-03-14T09:23:52;3.70;;;2.05;;
66342;SDS011;53144;51.524;5.080;2023-03-14T09:26:18;4.43;;;2.25;;
66342;SDS011;53144;51.524;5.080;2023-03-14T09:28:44;7.18;;;2.47;;
66342;SDS011;53144;51.524;5.080;2023-03-14T09:31:10;3.55;;;2.70;;
66342;SDS011;53144;51.524;5.080;2023-03-14T09:33:36;6.38;;;2.78;;
66342;SDS011;53144;51.524;5.080;2023-03-14T09:36:03;3.85;;;2.08;;
66342;SDS011;53144;51.524;5.080;2023-03-14T09:38:29;5.35;;;2.03;;
66342;SDS011;53144;51.524;5.080;2023-03-14T09:40:54;1.83;;;1.23;;
66342;SDS011;53144;51.524;5.080;2023-03-14T09:43:22;5.18;;;1.50;;
66342;SDS011;53144;51.524;5.080;2023-03-14T09:45:49;2.58;;;1.10;;
66342;SDS011;53144;51.524;5.080;2023-03-14T09:50:47;2.92;;;1.10;;
66342;SDS011;53144;51.524;5.080;2023-03-14T09:53:18;5.95;;;1.38;;
66342;SDS011;53144;51.524;5.080;2023-03-14T09:55:47;1.25;;;0.80;;
66342;SDS011;53144;51.524;5.080;2023-03-14T09:58:16;3.28;;;0.63;;
66342;SDS011;53144;51.524;5.080;2023-03-14T10:00:43;2.70;;;0.80;;
66342;SDS011;53144;51.524;5.080;2023-03-14T10:03:22;7.15;;;1.40;;
66342;SDS011;53144;51.524;5.080;2023-03-14T10:05:50;5.25;;;1.10;;
66342;SDS011;53144;51.524;5.080;2023-03-14T10:08:16;2.53;;;0.90;;
66342;SDS011;53144;51.524;5.080;2023-03-14T10:10:41;3.65;;;1.13;;
66342;SDS011;53144;51.524;5.080;2023-03-14T10:15:58;6.38;;;1.35;;
66342;SDS011;53144;51.524;5.080;2023-03-14T10:18:31;5.60;;;1.27;;
66342;SDS011;53144;51.524;5.080;2023-03-14T10:23:50;7.60;;;2.25;;
66342;SDS011;53144;51.524;5.080;2023-03-14T10:26:17;5.63;;;1.45;;
66342;SDS011;53144;51.524;5.080;2023-03-14T10:28:50;6.75;;;1.42;;
66342;SDS011;53144;51.524;5.080;2023-03-14T10:31:17;12.55;;;2.20;;
66342;SDS011;53144;51.524;5.080;2023-03-14T10:33:43;15.25;;;2.15;;
66342;SDS011;53144;51.524;5.080;2023-03-14T10:36:24;8.73;;;1.95;;
66342;SDS011;53144;51.524;5.080;2023-03-14T10:38:57;7.57;;;2.22;;
66342;SDS011;53144;51.524;5.080;2023-03-14T10:41:43;12.75;;;2.05;;
66342;SDS011;53144;51.524;5.080;2023-03-14T10:44:13;10.93;;;2.10;;
66342;SDS011;53144;51.524;5.080;2023-03-14T10:46:41;13.52;;;2.05;;
66342;SDS011;53144;51.524;5.080;2023-03-14T10:49:07;14.93;;;2.63;;
66342;SDS011;53144;51.524;5.080;2023-03-14T10:51:33;12.30;;;2.47;;
66342;SDS011;53144;51.524;5.080;2023-03-14T10:54:03;11.68;;;2.28;;
66342;SDS011;53144;51.524;5.080;2023-03-14T10:56:37;11.27;;;1.98;;
66342;SDS011;53144;51.524;5.080;2023-03-14T10:59:03;11.93;;;2.17;;
66342;SDS011;53144;51.524;5.080;2023-03-14T11:04:08;10.27;;;1.83;;
66342;SDS011;53144;51.524;5.080;2023-03-14T11:14:54;17.90;;;2.42;;
66342;SDS011;53144;51.524;5.080;2023-03-14T11:17:30;12.27;;;2.67;;
66342;SDS011;53144;51.524;5.080;2023-03-14T11:22:48;24.23;;;3.30;;
66342;SDS011;53144;51.524;5.080;2023-03-14T11:25:32;20.10;;;3.22;;
66342;SDS011;53144;51.524;5.080;2023-03-14T11:28:21;14.27;;;2.20;;
66342;SDS011;53144;51.524;5.080;2023-03-14T11:30:55;13.77;;;2.35;;
66342;SDS011;53144;51.524;5.080;2023-03-14T11:33:55;10.23;;;2.20;;
66342;SDS011;53144;51.524;5.080;2023-03-14T11:39:24;14.60;;;3.40;;
66342;SDS011;53144;51.524;5.080;2023-03-14T11:41:53;16.73;;;2.88;;
66342;SDS011;53144;51.524;5.080;2023-03-14T11:44:23;19.77;;;3.45;;
66342;SDS011;53144;51.524;5.080;2023-03-14T11:47:19;19.70;;;3.50;;
66342;SDS011;53144;51.524;5.080;2023-03-14T11:53:09;19.55;;;3.40;;
66342;SDS011;53144;51.524;5.080;2023-03-14T11:55:41;15.07;;;2.55;;
66342;SDS011;53144;51.524;5.080;2023-03-14T11:58:13;16.77;;;2.55;;
66342;SDS011;53144;51.524;5.080;2023-03-14T12:00:39;15.85;;;2.75;;
66342;SDS011;53144;51.524;5.080;2023-03-14T12:03:11;18.35;;;2.88;;
66342;SDS011;53144;51.524;5.080;2023-03-14T12:13:45;24.15;;;3.92;;
66342;SDS011;53144;51.524;5.080;2023-03-14T12:18:48;22.20;;;3.38;;
66342;SDS011;53144;51.524;5.080;2023-03-14T12:21:13;16.75;;;3.28;;
66342;SDS011;53144;51.524;5.080;2023-03-14T12:26:21;21.33;;;3.25;;
66342;SDS011;53144;51.524;5.080;2023-03-14T12:28:49;13.43;;;2.78;;
66342;SDS011;53144;51.524;5.080;2023-03-14T12:47:55;15.77;;;3.15;;
66342;SDS011;53144;51.524;5.080;2023-03-14T12:50:38;14.48;;;2.92;;
66342;SDS011;53144;51.524;5.080;2023-03-14T12:55:47;9.95;;;1.50;;
66342;SDS011;53144;51.524;5.080;2023-03-14T12:58:22;11.23;;;2.15;;
66342;SDS011;53144;51.524;5.080;2023-03-14T13:01:01;9.70;;;2.08;;
66342;SDS011;53144;51.524;5.080;2023-03-14T13:03:49;13.50;;;2.15;;
66342;SDS011;53144;51.524;5.080;2023-03-14T13:12:14;9.55;;;2.50;;
66342;SDS011;53144;51.524;5.080;2023-03-14T13:14:43;6.20;;;1.83;;
66342;SDS011;53144;51.524;5.080;2023-03-14T13:17:14;12.15;;;1.77;;
66342;SDS011;53144;51.524;5.080;2023-03-14T13:19:44;9.40;;;2.00;;
66342;SDS011;53144;51.524;5.080;2023-03-14T13:22:20;14.00;;;2.50;;
66342;SDS011;53144;51.524;5.080;2023-03-14T13:24:49;7.95;;;1.45;;
66342;SDS011;53144;51.524;5.080;2023-03-14T13:29:45;8.43;;;2.00;;
66342;SDS011;53144;51.524;5.080;2023-03-14T13:32:17;8.20;;;2.10;;
66342;SDS011;53144;51.524;5.080;2023-03-14T13:34:45;16.98;;;2.78;;
66342;SDS011;53144;51.524;5.080;2023-03-14T13:37:22;12.25;;;2.20;;
66342;SDS011;53144;51.524;5.080;2023-03-14T13:39:52;14.98;;;2.75;;
66342;SDS011;53144;51.524;5.080;2023-03-14T13:42:20;11.38;;;2.03;;
66342;SDS011;53144;51.524;5.080;2023-03-14T13:44:49;9.88;;;2.10;;
66342;SDS011;53144;51.524;5.080;2023-03-14T13:47:18;12.70;;;2.03;;
66342;SDS011;53144;51.524;5.080;2023-03-14T13:49:46;11.23;;;2.60;;
66342;SDS011;53144;51.524;5.080;2023-03-14T13:52:23;11.90;;;2.00;;
66342;SDS011;53144;51.524;5.080;2023-03-14T13:55:02;11.85;;;1.85;;
66342;SDS011;53144;51.524;5.080;2023-03-14T13:57:46;6.20;;;1.27;;
66342;SDS011;53144;51.524;5.080;2023-03-14T14:00:23;9.52;;;2.00;;
66342;SDS011;53144;51.524;5.080;2023-03-14T14:02:53;7.97;;;1.80;;
66342;SDS011;53144;51.524;5.080;2023-03-14T14:05:19;11.40;;;2.28;;
66342;SDS011;53144;51.524;5.080;2023-03-14T14:07:45;13.82;;;2.13;;
66342;SDS011;53144;51.524;5.080;2023-03-14T14:10:12;11.13;;;2.35;;
66342;SDS011;53144;51.524;5.080;2023-03-14T14:12:43;9.68;;;1.83;;
66342;SDS011;53144;51.524;5.080;2023-03-14T14:18:14;7.50;;;1.35;;
66342;SDS011;53144;51.524;5.080;2023-03-14T14:20:44;10.13;;;1.48;;
66342;SDS011;53144;51.524;5.080;2023-03-14T14:23:24;12.65;;;1.73;;
66342;SDS011;53144;51.524;5.080;2023-03-14T14:25:53;9.27;;;1.73;;
66342;SDS011;53144;51.524;5.080;2023-03-14T14:28:25;15.70;;;2.00;;
66342;SDS011;53144;51.524;5.080;2023-03-14T14:31:26;11.35;;;1.85;;
66342;SDS011;53144;51.524;5.080;2023-03-14T14:33:53;7.53;;;1.35;;
66342;SDS011;53144;51.524;5.080;2023-03-14T14:39:11;7.55;;;1.38;;
66342;SDS011;53144;51.524;5.080;2023-03-14T14:41:45;10.05;;;1.73;;
66342;SDS011;53144;51.524;5.080;2023-03-14T14:44:13;7.95;;;1.55;;
66342;SDS011;53144;51.524;5.080;2023-03-14T14:46:43;6.70;;;1.67;;
66342;SDS011;53144;51.524;5.080;2023-03-14T14:49:10;7.72;;;1.25;;
66342;SDS011;53144;51.524;5.080;2023-03-14T14:51:43;11.88;;;2.20;;
66342;SDS011;53144;51.524;5.080;2023-03-14T14:54:19;7.10;;;1.50;;
66342;SDS011;53144;51.524;5.080;2023-03-14T14:57:01;9.88;;;2.08;;
66342;SDS011;53144;51.524;5.080;2023-03-14T14:59:28;8.90;;;1.40;;
66342;SDS011;53144;51.524;5.080;2023-03-14T15:01:54;8.52;;;2.53;;
66342;SDS011;53144;51.524;5.080;2023-03-14T15:04:21;8.80;;;1.80;;
66342;SDS011;53144;51.524;5.080;2023-03-14T15:06:47;8.77;;;1.70;;
66342;SDS011;53144;51.524;5.080;2023-03-14T15:09:15;13.80;;;1.92;;
66342;SDS011;53144;51.524;5.080;2023-03-14T15:11:42;8.55;;;1.45;;
66342;SDS011;53144;51.524;5.080;2023-03-14T15:14:08;7.78;;;1.85;;
66342;SDS011;53144;51.524;5.080;2023-03-14T15:16:33;8.55;;;2.90;;
66342;SDS011;53144;51.524;5.080;2023-03-14T15:19:00;15.85;;;1.83;;
66342;SDS011;53144;51.524;5.080;2023-03-14T15:21:31;11.38;;;1.75;;
66342;SDS011;53144;51.524;5.080;2023-03-14T15:26:23;7.97;;;1.55;;
66342;SDS011;53144;51.524;5.080;2023-03-14T15:28:50;7.22;;;1.20;;
66342;SDS011;53144;51.524;5.080;2023-03-14T15:31:17;10.88;;;2.03;;
66342;SDS011;53144;51.524;5.080;2023-03-14T15:33:44;7.00;;;1.42;;
66342;SDS011;53144;51.524;5.080;2023-03-14T15:38:45;5.97;;;1.25;;
66342;SDS011;53144;51.524;5.080;2023-03-14T15:41:11;9.93;;;1.50;;
66342;SDS011;53144;51.524;5.080;2023-03-14T15:43:36;9.30;;;1.70;;
66342;SDS011;53144;51.524;5.080;2023-03-14T15:46:01;8.27;;;1.92;;
66342;SDS011;53144;51.524;5.080;2023-03-14T15:48:27;7.45;;;1.55;;
66342;SDS011;53144;51.524;5.080;2023-03-14T15:50:52;8.50;;;1.65;;
66342;SDS011;53144;51.524;5.080;2023-03-14T15:53:17;14.65;;;1.98;;
66342;SDS011;53144;51.524;5.080;2023-03-14T15:55:43;11.15;;;1.77;;
66342;SDS011;53144;51.524;5.080;2023-03-14T15:58:16;4.60;;;1.13;;
66342;SDS011;53144;51.524;5.080;2023-03-14T16:00:42;5.75;;;1.45;;
66342;SDS011;53144;51.524;5.080;2023-03-14T16:03:08;10.25;;;2.20;;
66342;SDS011;53144;51.524;5.080;2023-03-14T16:05:33;9.02;;;1.23;;
66342;SDS011;53144;51.524;5.080;2023-03-14T16:07:58;9.85;;;1.88;;
66342;SDS011;53144;51.524;5.080;2023-03-14T16:10:26;7.20;;;1.95;;
66342;SDS011;53144;51.524;5.080;2023-03-14T16:12:51;7.57;;;1.50;;
66342;SDS011;53144;51.524;5.080;2023-03-14T16:15:17;10.48;;;2.05;;
66342;SDS011;53144;51.524;5.080;2023-03-14T16:17:42;9.13;;;1.80;;
66342;SDS011;53144;51.524;5.080;2023-03-14T16:20:08;10.02;;;1.55;;
66342;SDS011;53144;51.524;5.080;2023-03-14T16:25:01;16.08;;;2.40;;
66342;SDS011;53144;51.524;5.080;2023-03-14T16:27:28;13.45;;;2.28;;
66342;SDS011;53144;51.524;5.080;2023-03-14T16:29:55;9.30;;;1.65;;
66342;SDS011;53144;51.524;5.080;2023-03-14T16:32:21;8.65;;;1.30;;
66342;SDS011;53144;51.524;5.080;2023-03-14T16:34:47;13.52;;;2.03;;
66342;SDS011;53144;51.524;5.080;2023-03-14T16:37:12;11.10;;;1.83;;
66342;SDS011;53144;51.524;5.080;2023-03-14T16:39:38;13.32;;;1.92;;
66342;SDS011;53144;51.524;5.080;2023-03-14T16:42:03;13.65;;;1.98;;
66342;SDS011;53144;51.524;5.080;2023-03-14T16:44:29;12.77;;;2.05;;
66342;SDS011;53144;51.524;5.080;2023-03-14T16:46:55;10.35;;;1.70;;
66342;SDS011;53144;51.524;5.080;2023-03-14T16:49:21;7.70;;;1.65;;
66342;SDS011;53144;51.524;5.080;2023-03-14T16:51:46;9.93;;;1.85;;
66342;SDS011;53144;51.524;5.080;2023-03-14T16:54:12;9.75;;;1.48;;
66342;SDS011;53144;51.524;5.080;2023-03-14T16:56:37;7.37;;;1.60;;
66342;SDS011;53144;51.524;5.080;2023-03-14T16:59:02;9.23;;;1.70;;
66342;SDS011;53144;51.524;5.080;2023-03-14T17:01:28;6.10;;;1.48;;
66342;SDS011;53144;51.524;5.080;2023-03-14T17:03:54;8.27;;;1.80;;
66342;SDS011;53144;51.524;5.080;2023-03-14T17:06:20;6.97;;;1.40;;
66342;SDS011;53144;51.524;5.080;2023-03-14T17:08:51;6.97;;;1.58;;
66342;SDS011;53144;51.524;5.080;2023-03-14T17:11:17;5.72;;;1.65;;
66342;SDS011;53144;51.524;5.080;2023-03-14T17:13:43;6.60;;;1.52;;
66342;SDS011;53144;51.524;5.080;2023-03-14T17:16:08;7.78;;;1.30;;
66342;SDS011;53144;51.524;5.080;2023-03-14T17:18:34;5.97;;;1.40;;
66342;SDS011;53144;51.524;5.080;2023-03-14T17:21:01;5.65;;;1.30;;
66342;SDS011;53144;51.524;5.080;2023-03-14T17:23:28;5.22;;;1.23;;
66342;SDS011;53144;51.524;5.080;2023-03-14T17:25:55;10.27;;;2.13;;
66342;SDS011;53144;51.524;5.080;2023-03-14T17:28:21;8.07;;;1.60;;
66342;SDS011;53144;51.524;5.080;2023-03-14T17:30:47;8.27;;;2.10;;
66342;SDS011;53144;51.524;5.080;2023-03-14T17:33:13;10.57;;;2.10;;
66342;SDS011;53144;51.524;5.080;2023-03-14T17:35:39;8.70;;;1.90;;
66342;SDS011;53144;51.524;5.080;2023-03-14T17:38:06;7.00;;;1.60;;
66342;SDS011;53144;51.524;5.080;2023-03-14T17:40:32;9.27;;;1.73;;
66342;SDS011;53144;51.524;5.080;2023-03-14T17:42:58;9.85;;;2.03;;
66342;SDS011;53144;51.524;5.080;2023-03-14T17:45:23;7.22;;;1.33;;
66342;SDS011;53144;51.524;5.080;2023-03-14T17:47:49;12.38;;;1.90;;
66342;SDS011;53144;51.524;5.080;2023-03-14T17:50:14;9.15;;;1.67;;
66342;SDS011;53144;51.524;5.080;2023-03-14T17:52:39;6.15;;;2.08;;
66342;SDS011;53144;51.524;5.080;2023-03-14T17:55:05;6.45;;;1.77;;
66342;SDS011;53144;51.524;5.080;2023-03-14T17:57:31;9.85;;;1.83;;
66342;SDS011;53144;51.524;5.080;2023-03-14T17:59:57;8.23;;;1.80;;
66342;SDS011;53144;51.524;5.080;2023-03-14T18:02:22;10.13;;;2.00;;
66342;SDS011;53144;51.524;5.080;2023-03-14T18:09:41;12.13;;;1.80;;
66342;SDS011;53144;51.524;5.080;2023-03-14T18:12:07;7.25;;;1.70;;
66342;SDS011;53144;51.524;5.080;2023-03-14T18:14:33;10.75;;;1.95;;
66342;SDS011;53144;51.524;5.080;2023-03-14T18:16:59;11.02;;;2.13;;
66342;SDS011;53144;51.524;5.080;2023-03-14T18:19:25;8.83;;;2.00;;
66342;SDS011;53144;51.524;5.080;2023-03-14T18:21:50;8.75;;;1.80;;
66342;SDS011;53144;51.524;5.080;2023-03-14T18:24:16;6.00;;;2.03;;
66342;SDS011;53144;51.524;5.080;2023-03-14T18:26:42;10.82;;;2.33;;
66342;SDS011;53144;51.524;5.080;2023-03-14T18:29:08;9.77;;;3.20;;
66342;SDS011;53144;51.524;5.080;2023-03-14T18:31:34;14.30;;;3.13;;
66342;SDS011;53144;51.524;5.080;2023-03-14T18:33:59;8.73;;;2.55;;
66342;SDS011;53144;51.524;5.080;2023-03-14T18:36:25;11.10;;;2.78;;
66342;SDS011;53144;51.524;5.080;2023-03-14T18:38:51;12.13;;;2.75;;
66342;SDS011;53144;51.524;5.080;2023-03-14T18:41:20;8.70;;;2.05;;
66342;SDS011;53144;51.524;5.080;2023-03-14T18:43:47;16.20;;;3.67;;
66342;SDS011;53144;51.524;5.080;2023-03-14T18:46:14;15.55;;;4.15;;
66342;SDS011;53144;51.524;5.080;2023-03-14T18:48:40;10.48;;;3.90;;
66342;SDS011;53144;51.524;5.080;2023-03-14T18:51:09;11.18;;;4.47;;
66342;SDS011;53144;51.524;5.080;2023-03-14T18:53:37;15.70;;;4.28;;
66342;SDS011;53144;51.524;5.080;2023-03-14T18:56:03;16.63;;;4.65;;
66342;SDS011;53144;51.524;5.080;2023-03-14T18:58:30;12.80;;;4.88;;
66342;SDS011;53144;51.524;5.080;2023-03-14T19:00:59;13.45;;;4.85;;